Terminal Aerodrome Forecast
Issued by NWS

Home | Current Version | Previous Version | Text Only | Print | Product List | Glossary On
Versions: 1 2 3 4 5 6 7 8 9 10 11 12 13 14 15 16 17 18
000
FTUS46 KPDT 210200 AAA
TAFBDN
TAF AMD
KBDN 210254Z 2103/2124 VRB04KT P6SM SCT050
     FM210600 21005KT P6SM SCT050
     FM211200 21007KT P6SM FEW050
     FM211800 24010G17KT P6SM FEW050=

USA.gov is the U.S. government's official web portal to all federal, state and local government web resources and services.